createdAt,value
2023-03-26T00:02:09.353Z,8.60
2023-03-26T00:04:38.565Z,8.65
2023-03-26T00:07:10.615Z,8.65
2023-03-26T00:09:38.949Z,8.63
2023-03-26T00:12:11.823Z,8.60
2023-03-26T00:14:41.359Z,8.60
2023-03-26T00:17:09.803Z,8.59
2023-03-26T00:19:43.305Z,8.59
2023-03-26T00:22:13.746Z,8.59
2023-03-26T00:24:46.054Z,8.56
2023-03-26T00:27:20.565Z,8.53
2023-03-26T00:29:49.682Z,8.50
2023-03-26T00:32:18.007Z,8.50
2023-03-26T00:34:46.635Z,8.50
2023-03-26T00:37:15.291Z,8.49
2023-03-26T00:39:49.264Z,8.49
2023-03-26T00:42:17.556Z,8.46
2023-03-26T00:44:45.794Z,8.43
2023-03-26T00:47:14.158Z,8.41
2023-03-26T00:49:43.014Z,8.40
2023-03-26T00:52:18.956Z,8.40
2023-03-26T00:54:50.852Z,8.41
2023-03-26T00:57:34.642Z,8.44
2023-03-26T01:00:10.170Z,8.50
2023-03-26T01:02:41.246Z,8.52
2023-03-26T01:05:29.349Z,8.50
2023-03-26T01:07:58.285Z,8.43
2023-03-26T01:10:27.009Z,8.40
2023-03-26T01:12:55.737Z,8.39
2023-03-26T01:15:30.041Z,8.39
2023-03-26T01:17:59.158Z,8.40
2023-03-26T01:20:31.554Z,8.39
2023-03-26T01:23:01.239Z,8.37
2023-03-26T01:25:29.762Z,8.40
2023-03-26T01:27:57.890Z,8.42
2023-03-26T01:30:35.147Z,8.44
2023-03-26T01:33:26.672Z,8.47
2023-03-26T01:35:58.576Z,8.47
2023-03-26T01:38:29.844Z,8.49
2023-03-26T01:41:08.138Z,8.49
2023-03-26T01:43:55.708Z,8.50
2023-03-26T01:46:24.098Z,8.51
2023-03-26T01:48:52.494Z,8.51
2023-03-26T01:51:28.020Z,8.52
2023-03-26T01:54:02.403Z,8.49
2023-03-26T01:56:51.351Z,8.47
2023-03-26T01:59:24.248Z,8.47
2023-03-26T02:01:59.447Z,8.49
2023-03-26T02:04:30.924Z,8.51
2023-03-26T02:07:02.197Z,8.52
2023-03-26T02:09:31.164Z,8.50
2023-03-26T02:11:59.942Z,8.49
2023-03-26T02:14:29.417Z,8.46
2023-03-26T02:16:58.761Z,8.47
2023-03-26T02:19:27.067Z,8.46
2023-03-26T02:21:59.886Z,8.43
2023-03-26T02:24:28.600Z,8.42
2023-03-26T02:27:02.405Z,8.43
2023-03-26T02:29:31.124Z,8.46
2023-03-26T02:32:08.774Z,8.46
2023-03-26T02:34:37.935Z,8.46
2023-03-26T02:37:06.980Z,8.48
2023-03-26T02:39:35.681Z,8.49
2023-03-26T02:42:10.458Z,8.51
2023-03-26T02:44:44.730Z,8.53
2023-03-26T02:47:34.050Z,8.56
2023-03-26T02:50:21.336Z,8.55
2023-03-26T02:53:18.511Z,8.56
2023-03-26T02:55:50.382Z,8.58
2023-03-26T02:58:20.241Z,8.59
2023-03-26T03:00:55.161Z,8.59
2023-03-26T03:03:37.677Z,8.59
2023-03-26T03:06:21.891Z,8.58
2023-03-26T03:08:56.493Z,8.59
2023-03-26T03:11:44.714Z,8.60
2023-03-26T03:14:13.120Z,8.60
2023-03-26T03:16:43.949Z,8.64
2023-03-26T03:19:13.039Z,8.64
2023-03-26T03:21:46.728Z,8.66
2023-03-26T03:24:18.671Z,8.66
2023-03-26T03:26:50.427Z,8.68
2023-03-26T03:29:39.532Z,8.68
2023-03-26T03:32:36.909Z,8.64
2023-03-26T03:35:12.511Z,8.65
2023-03-26T03:37:43.563Z,8.66
2023-03-26T03:40:12.534Z,8.66
2023-03-26T03:42:41.123Z,8.69
2023-03-26T03:45:10.130Z,8.74
2023-03-26T03:48:01.383Z,8.77
2023-03-26T03:50:37.521Z,8.78
2023-03-26T03:53:20.364Z,8.79
2023-03-26T03:56:10.625Z,8.81
2023-03-26T03:59:02.308Z,8.82
2023-03-26T04:01:34.269Z,8.85
2023-03-26T04:04:09.361Z,8.86
2023-03-26T04:07:05.575Z,8.87
2023-03-26T04:09:54.169Z,8.90
2023-03-26T04:12:24.390Z,8.90
2023-03-26T04:14:58.884Z,8.89
2023-03-26T04:17:27.245Z,8.90
2023-03-26T04:19:57.218Z,8.91
2023-03-26T04:22:34.868Z,8.91
2023-03-26T04:25:09.707Z,8.90
2023-03-26T04:28:07.550Z,8.88
2023-03-26T04:31:00.835Z,8.86
2023-03-26T04:33:42.048Z,8.88
2023-03-26T04:36:10.633Z,8.91
2023-03-26T04:38:43.579Z,8.94
2023-03-26T04:41:12.479Z,8.96
2023-03-26T04:44:05.466Z,8.99
2023-03-26T04:46:50.314Z,9.01
2023-03-26T04:49:26.977Z,9.02
2023-03-26T04:51:55.578Z,9.02
2023-03-26T04:54:43.659Z,9.02
2023-03-26T04:57:29.797Z,9.01
2023-03-26T05:00:20.386Z,8.99
2023-03-26T05:03:01.782Z,8.98
2023-03-26T05:05:30.490Z,8.97
2023-03-26T05:07:59.878Z,8.98
2023-03-26T05:10:28.138Z,8.95
2023-03-26T05:13:02.018Z,8.95
2023-03-26T05:15:39.678Z,8.99
2023-03-26T05:18:16.619Z,9.03
2023-03-26T05:20:49.083Z,9.04
2023-03-26T05:23:17.617Z,9.07
2023-03-26T05:25:57.005Z,9.09
2023-03-26T05:28:26.943Z,9.10
2023-03-26T05:31:01.186Z,9.10
2023-03-26T05:33:31.957Z,9.10
2023-03-26T05:36:05.769Z,9.12
2023-03-26T05:38:36.156Z,9.13
2023-03-26T05:41:06.420Z,9.11
2023-03-26T05:43:36.438Z,9.10
2023-03-26T05:46:28.018Z,9.14
2023-03-26T05:48:56.097Z,9.15
2023-03-26T05:51:24.311Z,9.16
2023-03-26T05:54:13.046Z,9.14
2023-03-26T05:57:00.947Z,9.16
2023-03-26T05:59:47.406Z,9.18
2023-03-26T06:02:18.568Z,9.20
2023-03-26T06:05:05.781Z,9.26
2023-03-26T06:07:52.803Z,9.36
2023-03-26T06:10:22.177Z,9.48
2023-03-26T06:12:50.477Z,9.57
2023-03-26T06:15:19.217Z,9.68
2023-03-26T06:18:09.380Z,9.76
2023-03-26T06:20:42.429Z,9.81
2023-03-26T06:23:27.391Z,9.87
2023-03-26T06:26:12.825Z,9.90
2023-03-26T06:29:00.995Z,9.95
2023-03-26T06:31:49.254Z,9.93
2023-03-26T06:34:24.009Z,9.86
2023-03-26T06:36:52.874Z,9.83
2023-03-26T06:39:22.611Z,9.84
2023-03-26T06:41:59.664Z,9.81
2023-03-26T06:44:51.167Z,9.78
2023-03-26T06:47:38.969Z,9.74
2023-03-26T06:50:28.147Z,9.72
2023-03-26T06:53:01.738Z,9.68
2023-03-26T06:55:55.735Z,9.72
2023-03-26T06:58:27.240Z,9.75
2023-03-26T07:01:14.176Z,9.78
2023-03-26T07:04:01.554Z,9.89
2023-03-26T07:06:48.351Z,10.01
2023-03-26T07:09:35.453Z,10.07
2023-03-26T07:12:03.784Z,10.08
2023-03-26T07:14:51.240Z,10.12
2023-03-26T07:17:41.061Z,10.21
2023-03-26T07:20:25.261Z,10.31
2023-03-26T07:22:54.060Z,10.37
2023-03-26T07:25:38.740Z,10.43
2023-03-26T07:28:17.497Z,10.46
2023-03-26T07:31:06.963Z,10.48
2023-03-26T07:34:02.452Z,10.48
2023-03-26T07:36:46.930Z,10.51
2023-03-26T07:39:41.720Z,10.52
2023-03-26T07:42:31.866Z,10.54
2023-03-26T07:45:26.401Z,10.60
2023-03-26T07:48:17.139Z,10.62
2023-03-26T07:51:00.340Z,10.67
2023-03-26T07:53:46.517Z,10.68
2023-03-26T07:56:59.794Z,10.65
2023-03-26T07:59:50.667Z,10.65
2023-03-26T08:02:56.847Z,10.68
2023-03-26T08:06:08.033Z,10.77
2023-03-26T08:08:50.588Z,10.83
2023-03-26T08:11:49.946Z,10.84
2023-03-26T08:14:30.635Z,10.84
2023-03-26T08:17:04.889Z,10.85
2023-03-26T08:19:45.006Z,10.84
2023-03-26T08:22:17.118Z,10.86
2023-03-26T08:24:59.498Z,10.91
2023-03-26T08:27:38.379Z,10.96
2023-03-26T08:30:22.527Z,11.00
2023-03-26T08:32:57.215Z,11.07
2023-03-26T08:35:28.817Z,11.12
2023-03-26T08:37:57.394Z,11.15
2023-03-26T08:40:34.891Z,11.20
2023-03-26T08:43:16.677Z,11.25
2023-03-26T08:45:51.550Z,11.27
2023-03-26T08:48:39.172Z,11.32
2023-03-26T08:51:13.724Z,11.34
2023-03-26T08:53:45.911Z,11.35
2023-03-26T08:56:26.130Z,11.36
2023-03-26T08:59:02.530Z,11.38
2023-03-26T09:01:30.959Z,11.34
2023-03-26T09:04:18.089Z,11.33
2023-03-26T09:06:50.471Z,11.29
2023-03-26T09:09:22.035Z,11.24
2023-03-26T09:11:50.185Z,11.24
2023-03-26T09:14:21.212Z,11.34
2023-03-26T09:17:08.106Z,11.43
2023-03-26T09:19:45.607Z,11.39
2023-03-26T09:22:43.278Z,11.30
2023-03-26T09:25:14.483Z,11.26
2023-03-26T09:28:01.646Z,11.30
2023-03-26T09:30:34.125Z,11.37
2023-03-26T09:33:28.739Z,11.49
2023-03-26T09:35:59.785Z,11.63
2023-03-26T09:38:57.429Z,11.76
2023-03-26T09:41:30.483Z,11.88
2023-03-26T09:44:07.182Z,11.87
2023-03-26T09:46:52.277Z,11.88
2023-03-26T09:49:24.343Z,11.91
2023-03-26T09:51:55.709Z,11.93
2023-03-26T09:54:27.154Z,11.90
2023-03-26T09:57:05.459Z,11.85
2023-03-26T09:59:33.594Z,11.79
2023-03-26T10:02:20.872Z,11.78
2023-03-26T10:05:02.385Z,11.77
2023-03-26T10:07:40.373Z,11.79
2023-03-26T10:10:09.055Z,11.81
2023-03-26T10:12:39.184Z,11.82
2023-03-26T10:15:26.381Z,11.84
2023-03-26T10:18:04.896Z,11.84
2023-03-26T10:21:01.431Z,11.92
2023-03-26T10:23:31.092Z,12.01
2023-03-26T10:26:04.086Z,12.17
2023-03-26T10:28:35.824Z,12.37
2023-03-26T10:31:10.067Z,12.57
2023-03-26T10:33:38.277Z,12.76
2023-03-26T10:36:19.088Z,12.90
2023-03-26T10:38:59.445Z,12.99
2023-03-26T10:41:31.447Z,13.07
2023-03-26T10:44:08.061Z,13.14
2023-03-26T10:46:47.572Z,13.18
2023-03-26T10:49:16.250Z,13.21
2023-03-26T10:51:51.592Z,13.34
2023-03-26T10:54:35.823Z,13.49
2023-03-26T10:57:06.903Z,13.63
2023-03-26T10:59:35.406Z,13.75
2023-03-26T11:02:10.114Z,13.93
2023-03-26T11:04:41.213Z,14.16
2023-03-26T11:07:12.473Z,14.41
2023-03-26T11:10:01.680Z,14.55
2023-03-26T11:12:44.756Z,14.70
2023-03-26T11:15:24.846Z,14.86
2023-03-26T11:18:11.686Z,15.01
2023-03-26T11:20:40.756Z,15.20
2023-03-26T11:23:12.215Z,15.38
2023-03-26T11:26:00.048Z,15.58
2023-03-26T11:28:31.584Z,15.83
2023-03-26T11:31:00.668Z,15.96
2023-03-26T11:33:37.122Z,15.94
2023-03-26T11:36:06.817Z,15.88
2023-03-26T11:38:40.412Z,15.83
2023-03-26T11:41:15.189Z,15.76
2023-03-26T11:43:55.710Z,15.66
2023-03-26T11:46:24.081Z,15.53
2023-03-26T11:48:59.646Z,15.47
2023-03-26T11:51:32.910Z,15.41
2023-03-26T11:54:03.395Z,15.43
2023-03-26T11:56:32.852Z,15.51
2023-03-26T11:59:01.422Z,15.69
2023-03-26T12:01:41.456Z,15.80
2023-03-26T12:04:13.818Z,15.84
2023-03-26T12:06:56.755Z,15.83
2023-03-26T12:09:26.020Z,15.69
2023-03-26T12:12:02.605Z,15.44
2023-03-26T12:14:32.991Z,15.21
2023-03-26T12:17:06.433Z,14.91
2023-03-26T12:19:41.440Z,14.53
2023-03-26T12:22:29.751Z,14.21
2023-03-26T12:25:01.427Z,13.91
2023-03-26T12:27:31.046Z,13.69
2023-03-26T12:30:00.424Z,13.45
2023-03-26T12:32:43.321Z,13.19
2023-03-26T12:35:20.638Z,12.94
2023-03-26T12:37:53.818Z,12.73
2023-03-26T12:40:22.466Z,12.59
2023-03-26T12:44:48.416Z,12.48
2023-03-26T12:45:43.590Z,12.40
2023-03-26T12:48:13.306Z,12.32
2023-03-26T12:50:44.996Z,12.23
2023-03-26T12:53:32.164Z,12.12
2023-03-26T12:56:24.594Z,12.10
2023-03-26T12:58:55.291Z,12.12
2023-03-26T13:01:40.283Z,12.18
2023-03-26T13:04:18.728Z,12.19
2023-03-26T13:07:02.622Z,12.16
2023-03-26T13:09:33.052Z,12.05
2023-03-26T13:12:07.321Z,11.96
2023-03-26T13:14:40.505Z,11.88
2023-03-26T13:17:18.392Z,11.79
2023-03-26T13:20:12.566Z,11.76
2023-03-26T13:22:56.692Z,11.78
2023-03-26T13:25:37.291Z,11.81
2023-03-26T13:28:21.069Z,11.85
2023-03-26T13:31:05.211Z,11.84
2023-03-26T13:33:42.623Z,11.82
2023-03-26T13:36:23.098Z,11.80
2023-03-26T13:38:59.743Z,11.80
2023-03-26T13:41:29.597Z,11.75
2023-03-26T13:44:10.701Z,11.71
2023-03-26T13:46:41.278Z,11.64
2023-03-26T13:49:13.067Z,11.56
2023-03-26T13:52:04.773Z,11.49
2023-03-26T13:54:38.018Z,11.41
2023-03-26T13:57:10.491Z,11.34
2023-03-26T13:59:40.558Z,11.30
2023-03-26T14:02:18.041Z,11.29
2023-03-26T14:04:47.720Z,11.30
2023-03-26T14:07:23.538Z,11.27
2023-03-26T14:09:57.337Z,11.26
2023-03-26T14:12:31.889Z,11.24
2023-03-26T14:15:11.619Z,11.28
2023-03-26T14:17:59.936Z,11.30
2023-03-26T14:20:28.630Z,11.28
2023-03-26T14:23:11.868Z,11.24
2023-03-26T14:25:49.508Z,11.20
2023-03-26T14:28:20.052Z,11.17
2023-03-26T14:30:52.613Z,11.16
2023-03-26T14:33:34.289Z,11.09
2023-03-26T14:36:09.217Z,11.01
2023-03-26T14:38:39.350Z,10.97
2023-03-26T14:41:10.826Z,10.99
2023-03-26T14:43:51.858Z,10.96
2023-03-26T14:46:24.141Z,10.88
2023-03-26T14:48:59.374Z,10.83
2023-03-26T14:51:42.541Z,10.77
2023-03-26T14:54:27.196Z,10.70
2023-03-26T14:57:12.391Z,10.71
2023-03-26T14:59:52.061Z,10.72
2023-03-26T15:02:29.256Z,10.76
2023-03-26T15:05:16.913Z,10.80
2023-03-26T15:07:47.073Z,10.84
2023-03-26T15:10:41.373Z,10.93
2023-03-26T15:13:29.292Z,11.05
2023-03-26T15:16:00.772Z,11.10
2023-03-26T15:18:51.300Z,11.09
2023-03-26T15:21:27.206Z,11.06
2023-03-26T15:23:55.854Z,11.06
2023-03-26T15:26:30.802Z,11.13
2023-03-26T15:28:59.221Z,11.21
2023-03-26T15:31:37.089Z,11.26
2023-03-26T15:34:26.057Z,11.31
2023-03-26T15:36:59.124Z,11.30
2023-03-26T15:39:33.857Z,11.30
2023-03-26T15:42:20.829Z,11.35
2023-03-26T15:44:53.887Z,11.38
2023-03-26T15:47:27.557Z,11.44
2023-03-26T15:49:59.951Z,11.39
2023-03-26T15:52:31.540Z,11.30
2023-03-26T15:55:04.332Z,11.22
2023-03-26T15:57:48.929Z,11.20
2023-03-26T16:00:24.719Z,11.22
2023-03-26T16:03:15.337Z,11.23
2023-03-26T16:05:45.110Z,11.28
2023-03-26T16:08:28.711Z,11.31
2023-03-26T16:10:58.510Z,11.35
2023-03-26T16:13:51.662Z,11.38
2023-03-26T16:16:21.788Z,11.37
2023-03-26T16:18:59.624Z,11.33
2023-03-26T16:21:37.409Z,11.28
2023-03-26T16:24:05.770Z,11.22
2023-03-26T16:26:52.487Z,11.18
2023-03-26T16:29:24.890Z,11.14
2023-03-26T16:32:13.068Z,11.06
2023-03-26T16:34:53.043Z,10.99
2023-03-26T16:37:37.384Z,10.99
2023-03-26T16:40:18.028Z,11.00
2023-03-26T16:42:50.643Z,11.00
2023-03-26T16:45:25.616Z,11.01
2023-03-26T16:48:01.238Z,11.00
2023-03-26T16:50:45.251Z,11.00
2023-03-26T16:53:38.810Z,11.00
2023-03-26T16:56:12.488Z,11.02
2023-03-26T16:58:44.385Z,11.08
2023-03-26T17:01:22.043Z,11.11
2023-03-26T17:03:55.213Z,11.15
2023-03-26T17:06:25.698Z,11.26
2023-03-26T17:09:00.204Z,11.26
2023-03-26T17:11:31.449Z,11.23
2023-03-26T17:14:08.959Z,11.25
2023-03-26T17:17:03.929Z,11.23
2023-03-26T17:19:34.558Z,11.14
2023-03-26T17:22:08.692Z,11.07
2023-03-26T17:24:40.957Z,11.01
2023-03-26T17:27:31.036Z,11.00
2023-03-26T17:30:03.639Z,10.97
2023-03-26T17:33:04.073Z,10.94
2023-03-26T17:35:44.319Z,10.89
2023-03-26T17:38:16.436Z,10.88
2023-03-26T17:40:44.806Z,10.89
2023-03-26T17:43:32.417Z,10.88
2023-03-26T17:46:03.006Z,10.89
2023-03-26T17:48:35.640Z,10.90
2023-03-26T17:51:17.467Z,10.89
2023-03-26T17:53:47.880Z,10.89
2023-03-26T17:56:16.849Z,10.84
2023-03-26T17:58:52.898Z,10.80
2023-03-26T18:01:30.177Z,10.78
2023-03-26T18:04:00.668Z,10.75
2023-03-26T18:06:37.957Z,10.70
2023-03-26T18:09:12.253Z,10.63
2023-03-26T18:11:43.917Z,10.64
2023-03-26T18:14:16.019Z,10.66
2023-03-26T18:16:49.615Z,10.71
2023-03-26T18:19:19.502Z,10.58
2023-03-26T18:21:52.903Z,10.55
2023-03-26T18:24:22.969Z,10.53
2023-03-26T18:26:54.133Z,10.50
2023-03-26T18:29:24.316Z,10.49
2023-03-26T18:31:54.704Z,10.47
2023-03-26T18:34:24.559Z,10.44
2023-03-26T18:37:08.678Z,10.41
2023-03-26T18:39:38.044Z,10.37
2023-03-26T18:42:06.942Z,10.39
2023-03-26T18:44:36.146Z,10.37
2023-03-26T18:47:10.924Z,10.38
2023-03-26T18:49:41.918Z,10.39
2023-03-26T18:52:13.422Z,10.39
2023-03-26T18:54:43.406Z,10.38
2023-03-26T18:57:15.210Z,10.36
2023-03-26T18:59:45.766Z,10.32
2023-03-26T19:02:14.637Z,10.23
2023-03-26T19:04:46.079Z,10.22
2023-03-26T19:07:25.039Z,10.20
2023-03-26T19:09:56.538Z,10.15
2023-03-26T19:12:28.953Z,10.18
2023-03-26T19:15:13.625Z,10.14
2023-03-26T19:17:51.602Z,9.93
2023-03-26T19:20:21.876Z,9.83
2023-03-26T19:22:50.342Z,9.76
2023-03-26T19:25:22.899Z,9.74
2023-03-26T19:27:51.991Z,9.71
2023-03-26T19:30:28.655Z,9.68
2023-03-26T19:33:13.170Z,9.65
2023-03-26T19:35:43.650Z,9.58
2023-03-26T19:38:13.370Z,9.55
2023-03-26T19:40:42.068Z,9.56
2023-03-26T19:43:12.147Z,9.63
2023-03-26T19:46:00.181Z,9.57
2023-03-26T19:48:45.527Z,9.58
2023-03-26T19:51:20.387Z,9.61
2023-03-26T19:53:54.030Z,9.63
2023-03-26T19:56:23.107Z,9.63
2023-03-26T19:58:51.424Z,9.59
2023-03-26T20:01:21.155Z,9.59
2023-03-26T20:03:58.287Z,9.58
2023-03-26T20:06:38.391Z,9.59
2023-03-26T20:09:12.428Z,9.58
2023-03-26T20:11:41.348Z,9.57
2023-03-26T20:14:14.014Z,9.56
2023-03-26T20:16:45.257Z,9.56
2023-03-26T20:19:14.843Z,9.58
2023-03-26T20:21:46.325Z,9.56
2023-03-26T20:24:17.867Z,9.56
2023-03-26T20:26:46.453Z,9.55
2023-03-26T20:29:15.168Z,9.53
2023-03-26T20:31:44.063Z,9.49
2023-03-26T20:34:19.987Z,9.45
2023-03-26T20:36:55.377Z,9.43
2023-03-26T20:39:23.945Z,9.43
2023-03-26T20:41:54.763Z,9.45
2023-03-26T20:44:23.613Z,9.42
2023-03-26T20:46:52.768Z,9.38
2023-03-26T20:49:22.319Z,9.33
2023-03-26T20:51:50.858Z,9.27
2023-03-26T20:54:21.433Z,9.23
2023-03-26T20:56:50.913Z,9.19
2023-03-26T20:59:21.916Z,9.14
2023-03-26T21:01:51.411Z,9.11
2023-03-26T21:04:19.786Z,9.08
2023-03-26T21:06:48.177Z,9.05
2023-03-26T21:09:18.279Z,9.03
2023-03-26T21:11:52.486Z,9.00
2023-03-26T21:14:24.990Z,8.96
2023-03-26T21:16:54.362Z,8.93
2023-03-26T21:19:22.845Z,8.88
2023-03-26T21:22:05.376Z,8.87
2023-03-26T21:24:35.165Z,8.88
2023-03-26T21:27:03.766Z,8.83
2023-03-26T21:29:33.429Z,8.79
2023-03-26T21:32:01.826Z,8.77
2023-03-26T21:34:33.533Z,8.72
2023-03-26T21:37:02.556Z,8.70
2023-03-26T21:39:31.229Z,8.58
2023-03-26T21:42:05.219Z,8.50
2023-03-26T21:44:35.064Z,8.42
2023-03-26T21:47:03.365Z,8.37
2023-03-26T21:49:33.305Z,8.34
2023-03-26T21:52:01.581Z,8.28
2023-03-26T21:54:31.427Z,8.27
2023-03-26T21:56:59.957Z,8.23
2023-03-26T21:59:41.482Z,8.20
2023-03-26T22:02:12.851Z,8.13
2023-03-26T22:04:41.136Z,8.08
2023-03-26T22:07:16.509Z,7.96
2023-03-26T22:09:45.448Z,7.85
2023-03-26T22:12:13.612Z,7.78
2023-03-26T22:14:42.480Z,7.72
2023-03-26T22:17:10.724Z,7.78
2023-03-26T22:19:41.531Z,7.86
2023-03-26T22:22:10.851Z,7.95
2023-03-26T22:24:39.221Z,8.00
2023-03-26T22:27:08.501Z,8.07
2023-03-26T22:29:37.926Z,8.10
2023-03-26T22:32:06.464Z,8.13
2023-03-26T22:34:36.443Z,8.15
2023-03-26T22:37:05.849Z,8.15
2023-03-26T22:39:34.944Z,8.17
2023-03-26T22:42:03.972Z,8.18
2023-03-26T22:44:32.194Z,8.19
2023-03-26T22:47:01.494Z,8.18
2023-03-26T22:49:31.499Z,8.16
2023-03-26T22:52:06.201Z,8.11
2023-03-26T22:54:36.630Z,8.08
2023-03-26T22:57:04.817Z,8.04
2023-03-26T22:59:33.216Z,8.02
2023-03-26T23:02:01.598Z,7.96
2023-03-26T23:04:32.428Z,7.90
2023-03-26T23:07:01.036Z,7.87
2023-03-26T23:09:29.772Z,7.83
2023-03-26T23:12:00.818Z,7.79
2023-03-26T23:14:29.506Z,7.75
2023-03-26T23:16:57.639Z,7.72
2023-03-26T23:19:34.270Z,7.69
2023-03-26T23:22:02.512Z,7.66
2023-03-26T23:24:30.763Z,7.66
2023-03-26T23:27:00.491Z,7.68
2023-03-26T23:29:30.266Z,7.72
2023-03-26T23:32:01.169Z,7.80
2023-03-26T23:34:32.209Z,7.74
2023-03-26T23:37:00.439Z,7.74
2023-03-26T23:39:28.796Z,7.74
2023-03-26T23:41:57.489Z,7.72
2023-03-26T23:44:29.788Z,7.73
2023-03-26T23:47:00.644Z,7.75
2023-03-26T23:49:28.898Z,7.77
2023-03-26T23:51:57.381Z,7.79
2023-03-26T23:54:25.822Z,7.77
2023-03-26T23:56:57.933Z,7.76
2023-03-26T23:59:26.632Z,7.73
